Time;durP1;ratioP1;P1;durP2;ratioP2;P2;SDS_P1;SDS_P2;PMS_P1;PMS_P2;Temp;Humidity;BMP_temperature;BMP_pressure;BME280_temperature;BME280_humidity;BME280_pressure;Samples;Min_cycle;Max_cycle;Signal;HPM_P1;HPM_P2
2022/10/27 00:02:00;;;;;;;9.57;4.50;;;;;;;11.91;100.00;102117.00;4973720;28;20030;-74
2022/10/27 00:04:25;;;;;;;8.75;4.72;;;;;;;11.89;100.00;102122.22;4974930;28;20038;-74
2022/10/27 00:06:51;;;;;;;11.13;4.90;;;;;;;11.85;100.00;102123.13;4976380;28;20426;-74
2022/10/27 00:09:16;;;;;;;8.48;4.38;;;;;;;11.80;100.00;102124.84;4972714;28;20031;-74
2022/10/27 00:11:41;;;;;;;9.75;4.50;;;;;;;11.79;100.00;102117.91;4976204;28;20086;-74
2022/10/27 00:14:07;;;;;;;7.88;4.10;;;;;;;11.71;100.00;102122.34;4974603;28;20046;-74
2022/10/27 00:16:32;;;;;;;7.85;4.57;;;;;;;11.70;100.00;102124.06;4974795;28;20467;-74
2022/10/27 00:18:57;;;;;;;11.38;4.30;;;;;;;11.69;100.00;102124.94;4974289;28;20419;-74
2022/10/27 00:21:23;;;;;;;13.07;4.60;;;;;;;11.70;100.00;102124.06;4975484;28;20035;-74
2022/10/27 00:23:49;;;;;;;9.63;4.60;;;;;;;11.66;100.00;102118.88;4974239;28;20030;-75
2022/10/27 00:26:16;;;;;;;9.73;4.78;;;;;;;11.60;100.00;102116.31;4975658;28;20019;-74
2022/10/27 00:28:41;;;;;;;10.73;4.20;;;;;;;11.67;100.00;102121.50;4972176;28;20031;-74
2022/10/27 00:31:20;;;;;;;12.07;4.50;;;;;;;11.68;100.00;102135.44;4974971;28;20038;-74
2022/10/27 00:33:47;;;;;;;8.10;4.68;;;;;;;11.62;100.00;102117.19;4975712;28;20023;-74
2022/10/27 00:36:16;;;;;;;14.32;5.15;;;;;;;11.63;100.00;102127.59;4975196;28;20356;-74
2022/10/27 00:38:42;;;;;;;8.60;5.18;;;;;;;11.71;100.00;102125.81;4973446;28;20035;-74
2022/10/27 00:41:20;;;;;;;10.10;4.85;;;;;;;11.70;100.00;102133.66;4973740;28;20026;-74
2022/10/27 00:43:45;;;;;;;11.85;4.20;;;;;;;11.69;100.00;102139.75;4974344;28;20058;-74
2022/10/27 00:46:36;;;;;;;7.95;4.75;;;;;;;11.65;100.00;102135.44;4975424;28;20027;-74
2022/10/27 00:49:26;;;;;;;9.43;4.95;;;;;;;11.64;100.00;102137.19;4974056;28;20026;-74
2022/10/27 00:51:56;;;;;;;11.15;4.63;;;;;;;11.69;100.00;102142.38;4974479;28;20027;-76
2022/10/27 00:54:26;;;;;;;7.97;4.90;;;;;;;11.69;100.00;102132.78;4973654;28;20043;-76
2022/10/27 00:56:53;;;;;;;10.32;4.32;;;;;;;11.76;100.00;102143.19;4975444;28;20038;-76
2022/10/27 00:59:20;;;;;;;12.95;5.05;;;;;;;11.78;100.00;102142.31;4973328;28;20038;-76
2022/10/27 01:01:46;;;;;;;9.40;5.20;;;;;;;11.76;100.00;102137.97;4975132;28;20038;-74
2022/10/27 01:04:13;;;;;;;11.30;5.00;;;;;;;11.81;100.00;102141.44;4971872;28;20031;-74
2022/10/27 01:06:38;;;;;;;10.88;4.93;;;;;;;11.84;100.00;102139.69;4974280;28;20027;-74
2022/10/27 01:09:05;;;;;;;8.68;4.85;;;;;;;11.83;100.00;102145.75;4974424;28;20117;-74
2022/10/27 01:11:30;;;;;;;18.60;5.28;;;;;;;11.91;100.00;102143.13;4974229;28;20078;-74
2022/10/27 01:13:56;;;;;;;12.27;4.95;;;;;;;11.87;100.00;102144.88;4973690;28;20093;-74
2022/10/27 01:16:33;;;;;;;11.27;4.88;;;;;;;11.92;100.00;102143.09;4974483;28;20030;-74
2022/10/27 01:19:37;;;;;;;11.20;4.90;;;;;;;11.96;100.00;102151.78;4971679;28;20039;-77
2022/10/27 01:22:21;;;;;;;8.55;5.25;;;;;;;11.97;100.00;102150.00;4972997;28;20034;-76
2022/10/27 01:25:05;;;;;;;;;;;;;;;12.00;100.00;102157.84;4974606;28;20117;-77
2022/10/27 01:27:51;;;;;;;13.73;4.38;;;;;;;12.01;100.00;102156.97;4961603;28;20012;-75
2022/10/27 01:30:19;;;;;;;10.82;4.75;;;;;;;12.03;100.00;102155.19;4972154;28;20039;-75
2022/10/27 01:33:05;;;;;;;8.70;4.40;;;;;;;12.05;100.00;102158.69;4973832;28;20483;-74
2022/10/27 01:35:50;;;;;;;11.20;4.82;;;;;;;12.05;100.00;102156.06;4970607;28;20426;-75
2022/10/27 01:38:27;;;;;;;12.20;4.57;;;;;;;12.07;100.00;102157.78;4972637;28;20039;-75
2022/10/27 01:41:09;;;;;;;8.25;4.20;;;;;;;12.06;100.00;102157.78;4973707;28;20120;-74
2022/10/27 01:43:35;;;;;;;14.32;4.90;;;;;;;12.04;100.00;102160.44;4972498;28;20149;-76
2022/10/27 01:46:04;;;;;;;7.75;4.95;;;;;;;12.07;100.00;102162.16;4973052;28;20027;-77
2022/10/27 01:48:32;;;;;;;13.00;5.22;;;;;;;12.03;100.00;102153.44;4972444;28;20469;-76
2022/10/27 01:50:58;;;;;;;13.70;4.90;;;;;;;12.07;100.00;102162.16;4974273;28;20022;-76
2022/10/27 01:53:23;;;;;;;13.05;5.75;;;;;;;12.05;100.00;102161.28;4973610;28;20173;-76
2022/10/27 01:56:04;;;;;;;10.65;5.13;;;;;;;12.04;100.00;102151.72;4973173;28;20372;-75
2022/10/27 01:58:47;;;;;;;10.52;5.30;;;;;;;12.05;100.00;102151.69;4973819;28;20070;-75
2022/10/27 02:01:15;;;;;;;;;;;;;;;12.03;100.00;102157.81;4972481;28;20034;-75
2022/10/27 02:03:57;;;;;;;10.57;4.82;;;;;;;12.01;100.00;102154.38;4973358;28;19957;-74
2022/10/27 02:06:47;;;;;;;10.18;4.72;;;;;;;11.93;100.00;102147.47;4973711;28;20097;-75
2022/10/27 02:09:21;;;;;;;14.57;5.00;;;;;;;11.89;100.00;102139.63;4972849;28;20035;-74
2022/10/27 02:11:51;;;;;;;12.05;5.22;;;;;;;11.87;100.00;102146.63;4972415;28;20438;-75
2022/10/27 02:14:18;;;;;;;11.70;4.47;;;;;;;11.81;100.00;102139.69;4964751;28;20435;-75
2022/10/27 02:16:48;;;;;;;10.88;5.25;;;;;;;11.79;100.00;102148.41;4972370;28;20121;-75
2022/10/27 02:19:21;;;;;;;11.95;5.05;;;;;;;11.78;100.00;102141.44;4960483;28;20078;-75
2022/10/27 02:21:50;;;;;;;14.40;4.97;;;;;;;11.71;100.00;102131.03;4973605;28;20051;-74
2022/10/27 02:24:15;;;;;;;12.50;5.13;;;;;;;11.74;100.00;102130.16;4972700;28;20030;-74
2022/10/27 02:26:51;;;;;;;8.75;5.70;;;;;;;11.63;100.00;102127.59;4973808;28;20382;-75
2022/10/27 02:29:23;;;;;;;13.18;5.38;;;;;;;11.62;100.00;102118.03;4971975;28;20069;-75
2022/10/27 02:31:52;;;;;;;10.40;5.25;;;;;;;11.61;100.00;102129.38;4973468;28;20482;-75
2022/10/27 02:34:18;;;;;;;14.95;5.57;;;;;;;11.54;100.00;102132.88;4971021;28;20031;-74
2022/10/27 02:36:44;;;;;;;12.90;4.93;;;;;;;11.53;100.00;102136.38;4972566;28;20032;-74
2022/10/27 02:39:10;;;;;;;9.65;4.93;;;;;;;11.54;100.00;102134.63;4973521;28;20025;-74
2022/10/27 02:41:35;;;;;;;12.82;5.43;;;;;;;11.50;100.00;102136.41;4973429;28;20035;-74
2022/10/27 02:44:00;;;;;;;13.27;5.35;;;;;;;11.47;100.00;102142.50;4971044;28;20059;-74
2022/10/27 02:46:25;;;;;;;9.48;5.43;;;;;;;11.41;100.00;102128.63;4972255;28;20054;-76
2022/10/27 02:48:51;;;;;;;9.52;5.22;;;;;;;11.40;100.00;102129.50;4973277;28;20077;-76
2022/10/27 02:51:16;;;;;;;9.35;5.40;;;;;;;11.39;100.00;102127.78;4974279;28;20026;-76
2022/10/27 02:53:41;;;;;;;11.88;5.93;;;;;;;11.36;100.00;102131.28;4977557;28;20030;-76
2022/10/27 02:56:07;;;;;;;11.13;5.65;;;;;;;11.32;100.00;102124.34;4976309;28;20595;-76
2022/10/27 02:58:33;;;;;;;11.63;5.95;;;;;;;11.25;100.00;102120.06;4976318;28;20034;-76
2022/10/27 03:00:58;;;;;;;11.55;6.00;;;;;;;11.26;100.00;102119.16;4977209;28;20027;-74
2022/10/27 03:03:24;;;;;;;11.10;6.15;;;;;;;11.27;100.00;102114.81;4976147;28;20038;-74
2022/10/27 03:05:50;;;;;;;11.50;5.63;;;;;;;11.29;100.00;102111.31;4975171;28;20027;-75
2022/10/27 03:08:15;;;;;;;14.48;6.20;;;;;;;11.28;100.00;102113.91;4977089;28;20454;-74
2022/10/27 03:10:42;;;;;;;9.88;6.32;;;;;;;11.24;100.00;102110.47;4977047;28;20042;-74
2022/10/27 03:13:07;;;;;;;11.63;6.90;;;;;;;11.19;100.00;102100.06;4976202;28;20126;-74
2022/10/27 03:15:32;;;;;;;14.25;5.88;;;;;;;11.17;100.00;102095.72;4974704;28;20110;-74
2022/10/27 03:17:58;;;;;;;12.80;6.15;;;;;;;11.20;100.00;102096.56;4963428;28;20027;-74
2022/10/27 03:20:23;;;;;;;11.57;5.85;;;;;;;11.25;100.00;102099.16;4974914;28;20109;-74
2022/10/27 03:22:48;;;;;;;9.20;5.95;;;;;;;11.19;100.00;102100.06;4976901;28;20023;-74
2022/10/27 03:25:14;;;;;;;13.60;6.03;;;;;;;11.19;100.00;102094.84;4974570;28;20114;-74
2022/10/27 03:27:41;;;;;;;11.30;5.80;;;;;;;11.16;100.00;102094.00;4977028;28;20459;-74
2022/10/27 03:30:09;;;;;;;12.57;5.68;;;;;;;11.14;100.00;102082.69;4976855;28;20033;-74
2022/10/27 03:32:35;;;;;;;12.52;6.07;;;;;;;11.16;100.00;102094.00;4975928;28;20035;-74
2022/10/27 03:35:00;;;;;;;12.20;5.82;;;;;;;11.14;100.00;102087.91;4974122;28;20037;-74
2022/10/27 03:37:26;;;;;;;12.68;5.85;;;;;;;11.07;100.00;102089.69;4976516;28;20038;-74
2022/10/27 03:39:51;;;;;;;9.70;5.53;;;;;;;11.03;100.00;102080.16;4975880;28;20019;-74
2022/10/27 03:42:16;;;;;;;11.63;5.70;;;;;;;11.00;100.00;102086.25;4976281;28;20066;-74
2022/10/27 03:44:41;;;;;;;9.00;5.07;;;;;;;11.03;100.00;102098.41;4974729;28;20091;-74
2022/10/27 03:47:07;;;;;;;11.10;5.63;;;;;;;10.99;100.00;102087.13;4974620;28;20034;-74
2022/10/27 03:49:32;;;;;;;13.52;5.97;;;;;;;10.94;100.00;102080.19;4976409;28;20726;-74
2022/10/27 03:51:57;;;;;;;10.52;4.97;;;;;;;10.91;100.00;102077.59;4976481;28;20074;-74
2022/10/27 03:54:23;;;;;;;9.65;5.47;;;;;;;10.93;100.00;102081.06;4974742;28;20498;-74
2022/10/27 03:56:48;;;;;;;12.63;5.50;;;;;;;10.92;100.00;102085.44;4975624;28;20035;-74
2022/10/27 03:59:13;;;;;;;14.27;5.50;;;;;;;10.88;100.00;102081.06;4975912;28;20030;-75
2022/10/27 04:01:38;;;;;;;13.65;5.35;;;;;;;10.87;100.00;102076.75;4973330;28;20027;-74
2022/10/27 04:04:04;;;;;;;12.48;5.57;;;;;;;10.83;100.00;102084.59;4975532;28;20039;-74
2022/10/27 04:06:30;;;;;;;10.15;5.13;;;;;;;10.85;100.00;102090.66;4974729;28;20046;-75
2022/10/27 04:08:55;;;;;;;12.10;5.80;;;;;;;10.83;100.00;102088.09;4975198;28;20124;-74
2022/10/27 04:11:20;;;;;;;8.95;5.25;;;;;;;10.80;100.00;102084.63;4974900;28;20043;-74
2022/10/27 04:13:46;;;;;;;11.15;5.57;;;;;;;10.80;100.00;102090.69;4975120;28;20034;-74
2022/10/27 04:16:12;;;;;;;14.80;5.38;;;;;;;10.76;100.00;102091.59;4972376;28;20026;-74
2022/10/27 04:18:37;;;;;;;10.77;4.90;;;;;;;10.72;100.00;102095.06;4972389;28;20027;-74
2022/10/27 04:21:04;;;;;;;9.60;5.00;;;;;;;10.77;100.00;102099.41;4975838;28;20066;-74
2022/10/27 04:23:29;;;;;;;11.32;5.20;;;;;;;10.75;100.00;102100.28;4973250;28;20034;-74
2022/10/27 04:25:55;;;;;;;9.95;5.10;;;;;;;10.78;100.00;102106.34;4975023;28;20045;-74
2022/10/27 04:28:20;;;;;;;11.95;5.00;;;;;;;10.77;100.00;102106.38;4975535;28;20026;-74
2022/10/27 04:30:46;;;;;;;9.88;4.93;;;;;;;10.74;100.00;102102.03;4975023;28;20019;-74
2022/10/27 04:33:11;;;;;;;11.68;4.80;;;;;;;10.67;100.00;102097.69;4972916;28;20039;-74
2022/10/27 04:35:37;;;;;;;10.45;4.75;;;;;;;10.73;100.00;102107.25;4974276;28;20027;-74
2022/10/27 04:38:02;;;;;;;7.88;4.68;;;;;;;10.70;100.00;102097.69;4975460;28;20054;-74
2022/10/27 04:40:28;;;;;;;11.25;4.75;;;;;;;10.69;100.00;102102.91;4975122;28;20031;-74
2022/10/27 04:42:53;;;;;;;9.57;4.65;;;;;;;10.72;100.00;102110.72;4971392;28;20058;-74
2022/10/27 04:45:18;;;;;;;13.20;5.40;;;;;;;10.70;100.00;102094.22;4974380;28;20394;-74
2022/10/27 04:47:44;;;;;;;12.18;4.95;;;;;;;10.78;100.00;102102.88;4975343;28;20027;-74
2022/10/27 04:50:09;;;;;;;14.90;5.25;;;;;;;10.82;100.00;102115.03;4974579;28;20424;-74
2022/10/27 04:52:34;;;;;;;13.68;5.47;;;;;;;10.76;100.00;102095.06;4975200;28;20073;-74
2022/10/27 04:55:00;;;;;;;11.27;5.45;;;;;;;10.87;100.00;102107.19;4973653;28;20017;-74
2022/10/27 04:57:25;;;;;;;12.88;5.38;;;;;;;10.77;100.00;102085.50;4974241;28;20474;-74
2022/10/27 04:59:50;;;;;;;13.52;6.10;;;;;;;10.88;100.00;102101.94;4974365;28;20483;-74
2022/10/27 05:02:15;;;;;;;11.65;5.63;;;;;;;10.95;100.00;102114.13;4974534;28;20109;-74
2022/10/27 05:04:41;;;;;;;10.98;5.97;;;;;;;10.95;100.00;102108.00;4970913;28;20392;-74
2022/10/27 05:07:06;;;;;;;14.32;5.82;;;;;;;10.99;100.00;102104.53;4974937;28;20030;-74
2022/10/27 05:09:31;;;;;;;12.05;6.10;;;;;;;11.07;100.00;102112.31;4974760;28;20297;-74
2022/10/27 05:11:56;;;;;;;11.10;6.10;;;;;;;11.07;100.00;102101.88;4974233;28;20058;-74
2022/10/27 05:14:22;;;;;;;15.07;6.03;;;;;;;11.09;100.00;102097.53;4970133;28;20363;-74
2022/10/27 05:16:47;;;;;;;15.27;6.65;;;;;;;11.06;100.00;102092.31;4973459;28;20061;-74
2022/10/27 05:19:12;;;;;;;13.75;6.00;;;;;;;11.18;100.00;102105.28;4973937;28;20029;-74
2022/10/27 05:21:37;;;;;;;13.75;6.38;;;;;;;11.15;100.00;102095.75;4973813;28;20528;-74
2022/10/27 05:24:03;;;;;;;14.43;6.05;;;;;;;11.22;100.00;102109.63;4974078;28;20081;-74
2022/10/27 05:26:29;;;;;;;12.27;6.35;;;;;;;11.25;100.00;102109.59;4972755;28;20420;-74
2022/10/27 05:28:54;;;;;;;16.67;6.25;;;;;;;11.25;100.00;102101.78;4974686;28;20023;-74
2022/10/27 05:31:19;;;;;;;12.23;5.97;;;;;;;11.23;100.00;102100.91;4974064;28;20022;-74
2022/10/27 05:33:45;;;;;;;14.35;5.88;;;;;;;11.22;100.00;102096.56;4971978;28;20038;-74
2022/10/27 05:36:10;;;;;;;16.20;5.85;;;;;;;11.20;100.00;102093.94;4972655;28;20085;-74
2022/10/27 05:38:37;;;;;;;15.30;6.07;;;;;;;11.18;100.00;102092.22;4974622;28;20039;-74
2022/10/27 05:41:02;;;;;;;12.32;5.95;;;;;;;11.23;100.00;102091.31;4973714;28;20390;-74
2022/10/27 05:43:27;;;;;;;11.20;5.95;;;;;;;11.23;100.00;102086.09;4973984;28;20031;-74
2022/10/27 05:45:52;;;;;;;17.65;5.78;;;;;;;11.27;100.00;102094.78;4971201;28;20146;-75
2022/10/27 05:48:18;;;;;;;13.57;5.55;;;;;;;11.23;100.00;102086.09;4974071;28;20039;-74
2022/10/27 05:50:43;;;;;;;13.38;6.10;;;;;;;11.28;100.00;102088.72;4973685;28;20475;-74
2022/10/27 05:53:08;;;;;;;16.55;5.60;;;;;;;11.29;100.00;102085.22;4973559;28;20023;-74
2022/10/27 05:55:34;;;;;;;18.52;5.90;;;;;;;11.35;100.00;102093.00;4972643;28;20042;-74
2022/10/27 05:58:01;;;;;;;11.95;5.90;;;;;;;11.38;100.00;102087.75;4973627;28;20478;-75
2022/10/27 06:00:33;;;;;;;9.32;5.10;;;;;;;11.36;100.00;102084.28;4971084;28;20485;-74
2022/10/27 06:03:00;;;;;;;11.27;5.97;;;;;;;11.38;100.00;102084.25;4965783;28;20063;-75
2022/10/27 06:05:27;;;;;;;14.15;5.72;;;;;;;11.37;100.00;102078.19;4972474;28;20042;-74
2022/10/27 06:07:52;;;;;;;17.15;5.55;;;;;;;11.45;100.00;102085.97;4972499;28;20533;-74
2022/10/27 06:10:18;;;;;;;13.93;5.57;;;;;;;11.48;100.00;102080.72;4973555;28;20117;-75
2022/10/27 06:12:43;;;;;;;9.85;5.82;;;;;;;11.51;100.00;102082.44;4973964;28;20383;-74
2022/10/27 06:15:09;;;;;;;10.77;5.50;;;;;;;11.53;100.00;102078.94;4968947;28;20803;-74
2022/10/27 06:17:34;;;;;;;12.18;5.80;;;;;;;11.48;100.00;102068.53;4973904;28;20015;-74
2022/10/27 06:20:00;;;;;;;11.63;5.80;;;;;;;11.58;100.00;102076.31;4974012;28;20494;-74
2022/10/27 06:22:25;;;;;;;11.48;5.63;;;;;;;11.57;100.00;102070.19;4971259;28;20035;-75
2022/10/27 06:24:50;;;;;;;8.90;4.93;;;;;;;11.61;100.00;102077.16;4972744;28;20037;-74
2022/10/27 06:27:15;;;;;;;13.88;5.45;;;;;;;11.58;100.00;102073.69;4975955;28;20030;-74
2022/10/27 06:29:41;;;;;;;7.82;4.88;;;;;;;11.57;100.00;102075.41;4971155;28;20046;-74
2022/10/27 06:32:06;;;;;;;8.57;4.40;;;;;;;11.49;100.00;102061.56;4976886;28;20019;-74
2022/10/27 06:34:31;;;;;;;9.38;4.57;;;;;;;11.52;100.00;102071.13;4973413;28;20479;-75
2022/10/27 06:36:56;;;;;;;9.75;4.80;;;;;;;11.47;100.00;102064.16;4984310;28;20037;-74
2022/10/27 06:39:22;;;;;;;6.63;3.78;;;;;;;11.53;100.00;102067.63;4973629;28;20038;-74
2022/10/27 06:41:47;;;;;;;7.97;3.85;;;;;;;11.53;100.00;102065.00;4972169;28;20041;-74
2022/10/27 06:44:12;;;;;;;6.80;3.20;;;;;;;11.52;100.00;102061.53;4970604;28;20051;-74
2022/10/27 06:46:38;;;;;;;10.90;3.25;;;;;;;11.55;100.00;102071.97;4973711;28;20034;-74
2022/10/27 06:49:04;;;;;;;8.85;2.83;;;;;;;11.54;100.00;102064.13;4972781;28;20026;-74
2022/10/27 06:51:29;;;;;;;7.72;3.20;;;;;;;11.53;100.00;102051.94;4970777;28;20398;-74
2022/10/27 06:53:55;;;;;;;7.18;3.28;;;;;;;11.57;100.00;102046.69;4973579;28;20066;-74
2022/10/27 06:56:20;;;;;;;6.82;3.38;;;;;;;11.64;100.00;102050.09;4971728;28;20360;-74
2022/10/27 06:58:49;;;;;;;6.55;3.53;;;;;;;11.67;100.00;102047.47;4973286;28;20019;-74
2022/10/27 07:01:14;;;;;;;6.97;3.58;;;;;;;11.65;100.00;102033.56;4970586;28;20033;-74
2022/10/27 07:03:40;;;;;;;7.35;3.67;;;;;;;11.78;100.00;102058.72;4970303;28;20035;-73
2022/10/27 07:06:06;;;;;;;9.30;4.53;;;;;;;11.80;100.00;102051.69;4970408;28;20497;-75
2022/10/27 07:08:31;;;;;;;9.15;3.97;;;;;;;11.89;100.00;102053.41;4966527;28;20039;-74
2022/10/27 07:10:57;;;;;;;7.03;4.47;;;;;;;11.90;100.00;102063.88;4969713;28;20506;-74
2022/10/27 07:13:22;;;;;;;10.35;4.75;;;;;;;11.94;100.00;102064.69;4980937;28;20109;-74
2022/10/27 07:15:47;;;;;;;9.77;4.50;;;;;;;11.94;100.00;102070.78;4973111;28;20084;-74
2022/10/27 07:18:13;;;;;;;7.35;4.95;;;;;;;11.93;100.00;102076.00;4971969;28;20019;-74
2022/10/27 07:20:38;;;;;;;13.23;4.93;;;;;;;11.92;100.00;102061.22;4971811;28;20049;-74
2022/10/27 07:23:04;;;;;;;12.02;4.82;;;;;;;11.92;100.00;102069.06;4972027;28;20030;-74
2022/10/27 07:25:31;;;;;;;10.55;4.68;;;;;;;11.95;100.00;102069.88;4970221;28;20038;-74
2022/10/27 07:27:57;;;;;;;9.48;4.57;;;;;;;11.99;100.00;102069.88;4973022;28;20102;-74
2022/10/27 07:30:25;;;;;;;8.75;4.90;;;;;;;12.03;100.00;102068.94;4973122;28;20578;-74
2022/10/27 07:32:51;;;;;;;8.77;4.95;;;;;;;12.07;100.00;102062.84;4971510;28;20034;-74
2022/10/27 07:35:16;;;;;;;12.45;5.10;;;;;;;12.09;100.00;102053.19;4968177;28;20027;-74
2022/10/27 07:37:43;;;;;;;7.00;4.10;;;;;;;12.11;100.00;102056.69;4973845;28;20093;-74
2022/10/27 07:40:09;;;;;;;5.18;3.95;;;;;;;12.22;100.00;102056.56;4975838;28;20023;-74
2022/10/27 07:42:47;;;;;;;8.93;4.63;;;;;;;12.31;100.00;102061.69;4976088;28;20378;-75
2022/10/27 07:45:14;;;;;;;10.32;3.88;;;;;;;12.42;100.00;102059.81;4973190;28;20042;-73
2022/10/27 07:47:44;;;;;;;8.98;3.75;;;;;;;12.54;100.00;102061.41;4972755;28;20039;-73
2022/10/27 07:50:10;;;;;;;6.90;3.50;;;;;;;12.63;100.00;102056.94;4974356;28;20110;-73
2022/10/27 07:52:39;;;;;;;5.32;3.85;;;;;;;12.75;100.00;102075.97;4976565;28;20486;-73
2022/10/27 07:55:05;;;;;;;6.63;3.60;;;;;;;12.75;100.00;102069.00;4987121;28;20061;-73
2022/10/27 07:57:30;;;;;;;5.32;3.10;;;;;;;12.77;100.00;102069.84;4975209;28;20058;-73
2022/10/27 07:59:55;;;;;;;6.30;3.20;;;;;;;12.87;100.00;102075.81;4974882;28;20106;-73
2022/10/27 08:02:21;;;;;;;6.93;3.10;;;;;;;12.88;100.00;102067.06;4968509;28;20031;-75
2022/10/27 08:04:46;;;;;;;8.55;3.15;;;;;;;12.92;100.00;102066.16;4975446;28;20058;-75
2022/10/27 08:07:11;;;;;;;9.23;2.92;;;;;;;12.93;100.00;102064.41;4977917;28;20027;-75
2022/10/27 08:09:37;;;;;;;5.47;3.35;;;;;;;12.98;100.00;102058.22;4980380;28;20034;-73
2022/10/27 08:12:02;;;;;;;6.88;3.50;;;;;;;13.04;100.00;102055.50;4974640;28;20031;-73
2022/10/27 08:14:28;;;;;;;7.10;3.45;;;;;;;12.95;100.00;102039.06;4974725;28;20344;-73
2022/10/27 08:16:56;;;;;;;6.15;2.72;;;;;;;13.11;100.00;102056.28;4974072;28;20030;-73
2022/10/27 08:19:21;;;;;;;7.47;2.60;;;;;;;13.16;100.00;102044.00;4974056;28;20034;-73
2022/10/27 08:21:47;;;;;;;5.65;2.67;;;;;;;13.08;100.00;102022.31;4973768;28;20039;-73
2022/10/27 08:24:12;;;;;;;4.50;2.45;;;;;;;13.29;100.00;102044.72;4973397;28;20027;-73
2022/10/27 08:26:37;;;;;;;5.75;2.20;;;;;;;13.43;100.00;102045.34;4975122;28;20031;-73
2022/10/27 08:29:03;;;;;;;6.47;2.25;;;;;;;13.57;100.00;102047.75;4975073;28;20027;-73
2022/10/27 08:31:28;;;;;;;7.75;2.13;;;;;;;13.63;100.00;102034.53;4975340;28;20093;-73
2022/10/27 08:33:54;;;;;;;4.15;2.20;;;;;;;13.82;100.00;102053.44;4974496;28;20106;-73
2022/10/27 08:36:19;;;;;;;5.88;2.00;;;;;;;13.89;100.00;102046.31;4973797;28;20054;-73
2022/10/27 08:38:44;;;;;;;4.07;1.92;;;;;;;14.06;100.00;102049.50;4971454;28;20038;-74
2022/10/27 08:41:28;;;;;;;4.32;1.50;;;;;;;14.14;100.00;102046.72;4987614;28;20026;-74
2022/10/27 08:44:24;;;;;;;3.35;1.85;;;;;;;14.22;100.00;102042.19;4966231;28;20097;-73
2022/10/27 08:46:52;;;;;;;3.00;1.67;;;;;;;14.35;100.00;102045.44;4971479;28;20394;-73
2022/10/27 08:49:40;;;;;;;7.47;1.73;;;;;;;14.46;100.00;102046.09;4973144;28;20023;-73
2022/10/27 08:52:17;;;;;;;5.00;1.67;;;;;;;14.60;100.00;102038.81;4975506;28;20109;-74
2022/10/27 08:54:50;;;;;;;6.68;1.75;;;;;;;14.71;100.00;102026.34;4974685;28;20030;-74
2022/10/27 08:57:23;;;;;;;3.45;1.25;;;;;;;14.85;100.00;102023.41;4973312;28;20113;-73
2022/10/27 08:59:51;;;;;;;5.75;1.33;;;;;;;15.02;100.00;102020.41;4971015;28;20057;-74
2022/10/27 09:02:50;;;;;;;6.15;1.75;;;;;;;15.14;100.00;102007.00;4973687;28;20026;-73
2022/10/27 09:05:31;;;;;;;3.47;1.30;;;;;;;15.25;100.00;101996.22;4971134;28;20041;-73
2022/10/27 09:08:09;;;;;;;4.43;1.40;;;;;;;15.28;97.32;101984.78;4965198;28;20034;-73
2022/10/27 09:10:40;;;;;;;3.35;1.35;;;;;;;15.44;98.22;102001.88;4973138;28;20026;-73
2022/10/27 09:13:19;;;;;;;5.13;1.45;;;;;;;15.50;98.88;101996.47;4973807;28;20033;-73
2022/10/27 09:15:55;;;;;;;3.67;1.25;;;;;;;15.63;96.18;101991.72;4973524;28;20030;-73
2022/10/27 09:18:29;;;;;;;3.38;1.27;;;;;;;15.77;95.53;102005.44;4973147;28;20117;-73
2022/10/27 09:20:56;;;;;;;5.43;1.60;;;;;;;15.85;94.48;101998.19;4962495;28;20026;-73
2022/10/27 09:23:32;;;;;;;5.15;1.50;;;;;;;15.95;95.57;102004.06;4974671;28;20082;-73
2022/10/27 09:25:58;;;;;;;6.80;1.73;;;;;;;16.04;94.69;102006.44;4973855;28;20058;-73
2022/10/27 09:29:04;;;;;;;7.38;1.70;;;;;;;16.10;97.03;101992.25;4974449;28;20360;-73
2022/10/27 09:31:37;;;;;;;5.35;1.73;;;;;;;16.19;94.83;101984.13;4894052;29;20036;-74
2022/10/27 09:34:17;;;;;;;6.95;1.92;;;;;;;16.25;93.22;101988.31;4955707;28;20062;-73
2022/10/27 09:36:43;;;;;;;6.55;1.60;;;;;;;16.28;92.78;101981.19;4973273;28;20045;-74
2022/10/27 09:39:08;;;;;;;2.65;1.23;;;;;;;16.30;91.34;101981.16;4970489;28;20118;-71
2022/10/27 09:41:34;;;;;;;3.20;1.60;;;;;;;16.39;91.02;101986.16;4971208;28;20035;-72
2022/10/27 09:44:01;;;;;;;4.53;1.40;;;;;;;16.38;89.26;101973.88;4974061;28;20383;-71
2022/10/27 09:46:28;;;;;;;4.03;1.27;;;;;;;16.42;88.68;101967.66;4972370;28;20572;-72
2022/10/27 09:49:04;;;;;;;3.75;1.33;;;;;;;16.42;90.91;101969.41;4973538;28;20110;-72
2022/10/27 09:51:38;;;;;;;3.08;1.38;;;;;;;16.42;90.66;101972.91;4972551;28;20098;-72
2022/10/27 09:54:04;;;;;;;3.60;1.70;;;;;;;16.43;91.68;101972.00;4976770;28;20035;-72
2022/10/27 09:56:35;;;;;;;3.13;1.30;;;;;;;16.44;89.38;101980.75;4973739;28;20118;-72
2022/10/27 09:59:05;;;;;;;4.07;1.45;;;;;;;16.48;89.19;101977.09;4985929;28;20023;-71
2022/10/27 10:01:42;;;;;;;4.35;1.33;;;;;;;16.58;90.79;101982.06;4973487;28;20038;-73
2022/10/27 10:04:37;;;;;;;6.13;1.45;;;;;;;16.65;92.80;101974.84;4961506;28;20101;-71
2022/10/27 10:07:05;;;;;;;3.25;1.35;;;;;;;16.83;91.20;101978.69;4960965;28;20395;-71
2022/10/27 10:09:38;;;;;;;4.97;1.63;;;;;;;17.00;90.15;101971.13;4968295;28;20463;-72
2022/10/27 10:12:24;;;;;;;3.92;1.35;;;;;;;17.21;87.74;101964.28;4973991;28;20112;-73
2022/10/27 10:15:10;;;;;;;5.18;1.40;;;;;;;17.38;86.44;101952.31;4973208;28;20098;-72
2022/10/27 10:17:38;;;;;;;3.00;1.42;;;;;;;17.48;87.52;101938.75;4972267;28;20026;-72
2022/10/27 10:20:06;;;;;;;4.45;1.45;;;;;;;17.65;83.85;101951.34;4971669;28;20086;-73
2022/10/27 10:22:34;;;;;;;4.35;1.35;;;;;;;17.74;81.84;101947.53;4965643;28;20101;-73
2022/10/27 10:25:32;;;;;;;6.85;1.63;;;;;;;17.79;85.57;101948.28;4973338;28;20023;-72
2022/10/27 10:28:05;;;;;;;4.20;1.33;;;;;;;17.83;84.29;101947.22;4972500;28;20057;-73
2022/10/27 10:30:34;;;;;;;2.83;1.63;;;;;;;17.92;81.14;101952.19;4968745;28;20050;-72
2022/10/27 10:33:01;;;;;;;4.07;1.50;;;;;;;18.00;80.44;101944.81;4967297;28;20549;-73
2022/10/27 10:35:45;;;;;;;5.05;1.30;;;;;;;17.96;84.21;101942.38;4970968;28;20034;-73
2022/10/27 10:38:23;;;;;;;5.65;1.50;;;;;;;18.06;85.31;101949.03;4972388;28;20105;-72
2022/10/27 10:41:03;;;;;;;5.00;1.45;;;;;;;18.12;82.16;101932.97;4972631;28;20431;-72
2022/10/27 10:43:28;;;;;;;3.80;1.30;;;;;;;18.20;80.75;101930.03;4970955;28;20047;-72
2022/10/27 10:45:54;;;;;;;4.03;1.55;;;;;;;18.24;80.82;101928.97;4972015;28;20035;-72
2022/10/27 10:48:25;;;;;;;4.97;1.60;;;;;;;18.37;80.00;101932.00;4971132;28;20109;-73
2022/10/27 10:50:52;;;;;;;9.00;2.10;;;;;;;18.46;79.81;101923.75;4972121;28;20038;-72
2022/10/27 10:53:27;;;;;;;3.25;1.33;;;;;;;18.55;79.91;101918.09;4970939;28;20031;-72
2022/10/27 10:55:54;;;;;;;9.00;1.90;;;;;;;18.63;79.41;101925.72;4971718;28;20497;-72
2022/10/27 10:58:22;;;;;;;5.18;1.48;;;;;;;18.66;78.00;101928.22;4972136;28;20034;-72
2022/10/27 11:00:52;;;;;;;4.32;1.75;;;;;;;18.63;79.12;101921.28;4972470;28;20030;-72
2022/10/27 11:03:19;;;;;;;11.40;2.03;;;;;;;18.68;78.99;101911.41;4972352;28;20478;-72
2022/10/27 11:05:52;;;;;;;3.55;1.75;;;;;;;18.68;79.77;101916.69;4972034;28;20109;-75
2022/10/27 11:08:23;;;;;;;6.10;1.70;;;;;;;18.74;76.92;101925.31;4972307;28;20025;-72
2022/10/27 11:10:51;;;;;;;4.05;1.40;;;;;;;18.74;77.16;101922.66;4966620;28;20027;-72
2022/10/27 11:13:27;;;;;;;4.00;1.40;;;;;;;18.80;78.79;101925.06;4986735;28;20041;-72
2022/10/27 11:16:00;;;;;;;4.47;1.65;;;;;;;18.83;78.17;101925.78;4977114;28;20031;-72
2022/10/27 11:18:34;;;;;;;9.88;1.63;;;;;;;18.81;79.03;101916.22;4978220;28;20069;-72
2022/10/27 11:21:12;;;;;;;5.20;1.70;;;;;;;18.82;78.83;101916.16;4970894;28;20031;-72
2022/10/27 11:23:46;;;;;;;2.85;1.67;;;;;;;18.77;80.59;101910.22;4975850;28;20045;-72
2022/10/27 11:26:17;;;;;;;5.32;1.70;;;;;;;18.79;78.86;101910.13;4973473;28;20026;-72